Decoded Metar for SAZS (SAN CARLOS DE BARILOCH in ARGENTINA) (IATA:BRC) | Meteo·Mobile Aviation Weather
aviador You're here:

SAZS Decoded Metar

SAN CARLOS DE BARILOCH in ARGENTINA
Report Time2018-09-21 09:00:00
UTC Time2018-09-21 09:29:54
Flight Rules vfr VFR
Wind320° at 22 kt
W.Decomp.*RWY 29: 20.4 kt HW 8.2 kt RCW
W.Rank320° ranks 1
Current wind is above 320° avg. (14.1)
Visibility9999 m
Phenomena:Light Rain
Clouds:Scattered 035 Hf
Scattered 042 Hf
Overcast 050 Hf
Expected CloudBase > 1,600 ft AGL from Temp-Dew spread
Ceiling5,000 ft
Temp06°C (ISA -4)
Dew Point02°C (76% RH)
AAT-3.6°C
QNH1005 hPa
Density Alt2,710 ft
Elevation2,756 ft
Report Wrong Elevation
Raw Report
SAZS 210900Z 32022KT 9999 -RA SCT035 SCT042 OVC050 06/02 Q1005=

Extra information for SAZS:More info

Metar Taf Metar & Taf Last 4 Metars F.Rules Stats Wind Profile Meteogram Temp Stats Airport Information Weather charts Add Link Nearby VenuesMetar ALERT Operation Metar Decoded Social comments